Time;durP1;ratioP1;P1;durP2;ratioP2;P2;SDS_P1;SDS_P2;PMS_P1;PMS_P2;Temp;Humidity;BMP_temperature;BMP_pressure;BME280_temperature;BME280_humidity;BME280_pressure;Samples;Min_cycle;Max_cycle;Signal;HPM_P1;HPM_P2
2022/05/15 00:01:09;;;;;;;6.85;2.03;;;;;;;19.87;29.30;98061.63;5035427;28;20088;-67
2022/05/15 00:03:39;;;;;;;6.15;2.17;;;;;;;19.81;29.12;98057.25;5033770;28;20049;-65
2022/05/15 00:06:05;;;;;;;8.32;2.20;;;;;;;19.68;29.40;98059.53;5032764;28;20522;-65
2022/05/15 00:08:33;;;;;;;6.80;2.03;;;;;;;19.74;29.06;98070.09;5032360;28;20046;-65
2022/05/15 00:11:00;;;;;;;4.50;2.20;;;;;;;19.68;29.68;98062.25;5032467;28;20037;-65
2022/05/15 00:13:27;;;;;;;5.65;2.13;;;;;;;19.56;29.66;98056.97;5032436;28;20069;-65
2022/05/15 00:15:53;;;;;;;9.98;2.83;;;;;;;19.50;29.68;98059.88;5033416;28;20122;-65
2022/05/15 00:18:20;;;;;;;6.28;1.90;;;;;;;19.87;29.20;98064.31;5032379;28;20037;-65
2022/05/15 00:20:47;;;;;;;5.53;2.03;;;;;;;19.39;29.65;98061.63;5032321;28;20056;-65
2022/05/15 00:23:13;;;;;;;4.15;2.08;;;;;;;19.38;29.80;98059.19;4983064;28;20140;-65
2022/05/15 00:25:39;;;;;;;5.07;2.05;;;;;;;19.37;30.11;98061.06;5015549;28;20398;-65
2022/05/15 00:28:05;;;;;;;4.93;2.53;;;;;;;19.03;29.73;98043.44;5015207;28;20136;-65
2022/05/15 00:30:31;;;;;;;6.72;1.88;;;;;;;19.04;30.44;98058.50;5032054;28;20132;-64
2022/05/15 00:32:58;;;;;;;6.95;1.88;;;;;;;19.07;30.18;98036.47;5033329;28;20053;-64
2022/05/15 00:35:24;;;;;;;3.80;1.88;;;;;;;19.02;30.85;98055.22;5031896;28;20505;-64
2022/05/15 00:37:50;;;;;;;7.88;2.05;;;;;;;19.12;30.95;98054.56;5032202;28;20048;-64
2022/05/15 00:40:18;;;;;;;5.95;2.42;;;;;;;19.28;29.81;98042.94;4999052;28;20045;-64
2022/05/15 00:42:47;;;;;;;5.40;1.83;;;;;;;19.33;29.71;98030.34;4999019;28;20041;-64
2022/05/15 00:45:14;;;;;;;7.80;2.72;;;;;;;19.31;29.77;98062.09;5015354;28;20047;-64
2022/05/15 00:47:40;;;;;;;11.00;1.90;;;;;;;19.15;30.03;98059.44;5031605;28;20497;-64
2022/05/15 00:50:09;;;;;;;13.07;6.80;;;;;;;19.36;29.71;98051.38;5031777;28;20199;-64
2022/05/15 00:52:38;;;;;;;7.72;2.78;;;;;;;19.38;29.74;98051.94;5032462;28;20048;-64
2022/05/15 00:55:07;;;;;;;3.65;1.77;;;;;;;19.40;29.96;98057.09;4998642;28;20040;-64
2022/05/15 00:57:43;;;;;;;9.95;3.95;;;;;;;19.51;29.71;98048.84;5031571;28;20051;-63
2022/05/15 01:00:12;;;;;;;4.13;2.00;;;;;;;19.40;29.95;98055.22;4998841;28;20041;-64
2022/05/15 01:02:44;;;;;;;6.18;2.08;;;;;;;19.34;30.17;98047.31;5032689;28;20088;-64
2022/05/15 01:05:13;;;;;;;15.70;2.67;;;;;;;19.30;30.09;98044.31;5047706;28;20106;-64
2022/05/15 01:07:39;;;;;;;5.07;1.75;;;;;;;19.01;30.23;98018.63;5031584;28;20049;-63
2022/05/15 01:10:06;;;;;;;6.55;2.00;;;;;;;19.36;30.05;98046.00;5014943;28;20056;-63
2022/05/15 01:12:35;;;;;;;6.57;2.20;;;;;;;19.37;30.01;98044.91;5013934;28;20469;-64
2022/05/15 01:15:01;;;;;;;5.78;1.90;;;;;;;19.24;30.00;98047.97;5012888;28;20098;-64
2022/05/15 01:17:29;;;;;;;5.03;1.95;;;;;;;19.15;30.26;98024.44;5047435;28;20041;-64
2022/05/15 01:20:06;;;;;;;8.30;2.03;;;;;;;19.50;29.99;98035.63;5014527;28;20073;-64
2022/05/15 01:22:32;;;;;;;6.25;1.70;;;;;;;19.30;30.19;98038.09;5014589;28;20037;-63
2022/05/15 01:24:59;;;;;;;4.93;1.77;;;;;;;19.29;30.05;98040.00;5030860;28;20081;-64
2022/05/15 01:27:25;;;;;;;8.52;1.95;;;;;;;19.13;30.08;98016.63;4998357;28;20073;-65
2022/05/15 01:29:51;;;;;;;9.80;2.05;;;;;;;19.32;29.95;98039.50;4982745;28;20033;-64
2022/05/15 01:32:20;;;;;;;7.75;2.10;;;;;;;19.38;29.81;98038.50;5031166;28;20140;-65
2022/05/15 01:34:46;;;;;;;5.13;1.65;;;;;;;19.35;30.08;98044.38;5031282;28;20041;-65
2022/05/15 01:37:12;;;;;;;8.82;2.20;;;;;;;19.33;30.29;98038.44;4998623;28;20531;-65
2022/05/15 01:39:38;;;;;;;7.65;1.90;;;;;;;19.35;30.24;98033.59;5014470;28;20046;-65
2022/05/15 01:42:05;;;;;;;4.40;2.30;;;;;;;19.37;30.37;98039.53;4998181;28;20044;-64
2022/05/15 01:44:31;;;;;;;5.07;1.90;;;;;;;19.37;30.58;98044.13;5013974;28;20421;-64
2022/05/15 01:46:57;;;;;;;6.75;2.15;;;;;;;19.33;30.50;98046.50;5030474;28;20060;-64
2022/05/15 01:49:23;;;;;;;6.15;1.92;;;;;;;19.28;30.64;98041.06;5030855;28;20215;-64
2022/05/15 01:51:50;;;;;;;8.30;1.92;;;;;;;19.08;30.77;98010.38;5014069;28;20096;-64
2022/05/15 01:54:16;;;;;;;7.40;2.03;;;;;;;19.24;30.90;98047.97;5013793;28;20122;-66
2022/05/15 01:56:41;;;;;;;9.10;1.90;;;;;;;19.22;30.80;98041.22;5013543;28;20080;-63
2022/05/15 01:59:08;;;;;;;5.97;2.00;;;;;;;19.29;30.89;98034.63;5013768;28;20052;-63
2022/05/15 02:01:36;;;;;;;7.65;1.85;;;;;;;19.15;30.75;98043.28;5030379;28;20042;-63
2022/05/15 02:04:02;;;;;;;5.22;2.20;;;;;;;19.20;30.81;98043.34;5046267;28;20041;-64
2022/05/15 02:06:28;;;;;;;6.32;1.90;;;;;;;19.21;30.58;98035.03;5046512;28;20056;-65
2022/05/15 02:08:55;;;;;;;3.70;1.65;;;;;;;19.18;30.60;98022.06;5014057;28;20428;-65
2022/05/15 02:11:22;;;;;;;4.60;1.75;;;;;;;19.25;30.42;98041.53;5030091;28;20417;-65
2022/05/15 02:13:48;;;;;;;4.85;1.67;;;;;;;19.14;30.78;98041.66;5013436;28;20041;-66
2022/05/15 02:16:13;;;;;;;6.53;1.95;;;;;;;19.10;30.51;98040.53;5013464;28;20037;-66
2022/05/15 02:18:39;;;;;;;5.68;1.88;;;;;;;19.24;30.43;98037.22;5014044;28;20076;-65
2022/05/15 02:21:05;;;;;;;5.05;1.80;;;;;;;18.99;30.74;98036.09;5033404;28;20412;-65
2022/05/15 02:23:31;;;;;;;3.55;1.50;;;;;;;19.09;30.72;98039.72;5051401;28;20056;-63
2022/05/15 02:25:58;;;;;;;7.18;1.92;;;;;;;19.13;30.69;98040.03;5016565;28;20132;-66
2022/05/15 02:28:24;;;;;;;4.93;1.70;;;;;;;19.10;30.92;98037.84;5033410;28;20124;-65
2022/05/15 02:30:50;;;;;;;5.88;1.60;;;;;;;19.12;30.92;98046.47;5016536;28;20037;-65
2022/05/15 02:33:17;;;;;;;4.18;1.65;;;;;;;18.97;31.28;98043.59;5032938;28;20045;-65
2022/05/15 02:35:43;;;;;;;4.50;1.95;;;;;;;19.01;31.44;98042.84;5032659;28;20143;-66
2022/05/15 02:38:09;;;;;;;5.93;1.83;;;;;;;18.78;31.50;98042.28;5016483;28;20056;-64
2022/05/15 02:40:35;;;;;;;4.25;1.42;;;;;;;19.02;31.13;98049.06;5016649;28;20048;-65
2022/05/15 02:43:01;;;;;;;8.00;2.25;;;;;;;18.85;31.00;98019.50;5049175;28;20044;-65
2022/05/15 02:45:26;;;;;;;6.63;1.60;;;;;;;18.97;31.10;98035.53;5033186;28;20143;-65
2022/05/15 02:47:52;;;;;;;6.13;1.95;;;;;;;19.12;30.94;98049.16;5033092;28;20519;-64
2022/05/15 02:53:03;;;;;;;8.05;1.60;;;;;;;19.14;30.90;98042.50;5032476;28;20037;-67
2022/05/15 02:55:28;;;;;;;5.03;1.60;;;;;;;19.07;31.29;98039.16;5016450;28;20044;-66
2022/05/15 02:57:54;;;;;;;7.05;2.67;;;;;;;19.15;30.82;98046.81;5032856;28;20045;-67
2022/05/15 03:00:23;;;;;;;4.50;1.65;;;;;;;19.29;30.99;98040.00;5050312;28;20425;-67
2022/05/15 03:02:49;;;;;;;3.08;1.70;;;;;;;19.14;30.97;98039.81;5016261;28;20262;-74
2022/05/15 03:05:17;;;;;;;6.35;2.15;;;;;;;19.26;31.15;98039.66;5016164;28;20420;-68
2022/05/15 03:07:43;;;;;;;5.63;2.08;;;;;;;19.24;30.88;98044.47;5015900;28;20573;-68
2022/05/15 03:10:13;;;;;;;7.15;1.60;;;;;;;19.44;30.87;98042.84;5016081;28;20089;-68
2022/05/15 03:12:38;;;;;;;8.07;1.55;;;;;;;19.40;30.79;98041.75;5016252;28;20516;-67
2022/05/15 03:15:05;;;;;;;4.28;1.30;;;;;;;19.64;30.68;98045.75;5032166;28;20037;-68
2022/05/15 03:17:41;;;;;;;8.27;2.00;;;;;;;19.87;30.21;98048.16;5015672;28;20045;-68
2022/05/15 03:20:08;;;;;;;4.00;1.42;;;;;;;19.85;30.13;98050.28;5015861;28;20049;-66
2022/05/15 03:22:35;;;;;;;8.90;1.60;;;;;;;19.83;29.80;98046.22;5015929;28;20033;-69
2022/05/15 03:25:01;;;;;;;5.32;1.70;;;;;;;19.91;30.11;98054.63;5048722;28;20045;-68
2022/05/15 03:27:29;;;;;;;3.10;1.50;;;;;;;19.87;29.98;98050.00;5016618;28;20053;-66
2022/05/15 03:29:56;;;;;;;5.57;1.48;;;;;;;19.73;30.26;98049.63;5015616;28;20067;-66
2022/05/15 03:32:22;;;;;;;5.18;1.52;;;;;;;19.91;29.60;98051.16;5015599;28;20037;-66
2022/05/15 03:34:49;;;;;;;4.15;1.35;;;;;;;19.85;30.01;98055.66;5015223;28;20039;-66
2022/05/15 03:37:15;;;;;;;3.88;1.60;;;;;;;19.83;30.09;98055.09;5014199;28;20051;-66
2022/05/15 03:39:40;;;;;;;7.15;1.85;;;;;;;19.71;30.18;98062.53;5049525;28;20424;-66
2022/05/15 03:42:09;;;;;;;6.50;1.80;;;;;;;19.67;29.95;98039.03;5031245;28;20044;-67
2022/05/15 03:44:37;;;;;;;5.68;1.77;;;;;;;19.73;29.71;98060.41;5030658;28;20407;-67
2022/05/15 03:47:05;;;;;;;4.03;1.42;;;;;;;19.98;29.39;98054.44;5048012;28;20041;-67
2022/05/15 03:49:31;;;;;;;3.13;1.50;;;;;;;19.96;29.64;98060.06;5015854;28;20623;-66
2022/05/15 03:51:57;;;;;;;5.53;1.83;;;;;;;20.00;29.47;98053.09;5032131;28;20136;-67
2022/05/15 03:54:22;;;;;;;4.63;1.60;;;;;;;19.98;29.52;98036.38;5015450;28;20052;-67
2022/05/15 03:56:51;;;;;;;8.68;1.60;;;;;;;20.05;29.53;98034.28;4999308;28;20536;-67
2022/05/15 03:59:22;;;;;;;3.47;1.40;;;;;;;20.53;28.88;98054.06;5032427;28;20047;-65
2022/05/15 04:01:49;;;;;;;4.70;1.80;;;;;;;20.57;29.23;98039.84;5015656;28;20101;-66
2022/05/15 04:04:15;;;;;;;4.45;1.73;;;;;;;20.73;28.67;98038.84;5015573;28;20067;-66
2022/05/15 04:06:40;;;;;;;2.95;1.30;;;;;;;21.02;28.41;98056.28;5015420;28;20412;-66
2022/05/15 04:09:06;;;;;;;4.28;1.38;;;;;;;21.22;27.80;98059.06;5031786;28;20049;-67
2022/05/15 04:11:32;;;;;;;4.50;1.42;;;;;;;21.53;27.62;98060.81;5032383;28;20099;-65
2022/05/15 04:13:58;;;;;;;4.22;1.60;;;;;;;21.48;27.37;98063.50;5015720;28;20048;-67
2022/05/15 04:16:24;;;;;;;2.83;1.40;;;;;;;21.55;27.29;98064.06;5015565;28;20045;-67
2022/05/15 04:18:50;;;;;;;4.43;1.98;;;;;;;21.60;27.06;98061.34;4998727;28;20049;-65
2022/05/15 04:21:15;;;;;;;3.40;1.27;;;;;;;21.77;27.01;98065.75;5015288;28;20049;-66
2022/05/15 04:23:41;;;;;;;8.18;2.00;;;;;;;21.81;27.04;98059.56;5031578;28;20127;-66
2022/05/15 04:26:07;;;;;;;6.13;2.63;;;;;;;21.82;27.14;98065.78;5031712;28;20044;-67
2022/05/15 04:28:33;;;;;;;4.68;1.40;;;;;;;21.99;26.79;98071.75;5050398;28;20045;-67
2022/05/15 04:30:58;;;;;;;7.53;1.60;;;;;;;22.01;26.96;98059.56;5035211;28;20510;-67
2022/05/15 04:33:24;;;;;;;4.97;1.35;;;;;;;22.24;26.59;98061.75;5053301;28;21031;-66
2022/05/15 04:35:50;;;;;;;6.90;1.33;;;;;;;22.12;26.65;98039.56;5035150;28;20357;-66
2022/05/15 04:38:16;;;;;;;4.78;1.20;;;;;;;22.39;26.33;98074.44;5018575;28;20060;-67
2022/05/15 04:40:42;;;;;;;3.92;1.40;;;;;;;22.59;26.16;98061.75;5018535;28;20132;-67
2022/05/15 04:43:08;;;;;;;5.13;1.30;;;;;;;22.66;25.85;98067.72;5052793;28;20045;-67
2022/05/15 04:45:33;;;;;;;3.72;1.35;;;;;;;22.59;25.90;98063.63;5035256;28;20055;-67
2022/05/15 04:47:59;;;;;;;2.45;1.30;;;;;;;21.99;26.63;98060.94;5035085;28;20402;-67
2022/05/15 04:50:25;;;;;;;3.80;1.30;;;;;;;22.16;26.75;98056.06;5018279;28;20099;-67
2022/05/15 04:52:50;;;;;;;3.53;1.30;;;;;;;22.09;26.56;98047.41;5035020;28;20421;-67
2022/05/15 04:55:16;;;;;;;3.03;1.30;;;;;;;22.24;26.27;98071.75;5034062;28;20048;-67
2022/05/15 04:57:42;;;;;;;4.63;1.50;;;;;;;22.27;26.02;98060.38;5052588;28;20048;-67
2022/05/15 05:00:13;;;;;;;5.25;1.40;;;;;;;22.29;26.07;98039.28;5051333;28;20091;-67
2022/05/15 05:02:38;;;;;;;4.75;1.42;;;;;;;22.15;26.75;98063.38;5051270;28;20127;-67
2022/05/15 05:05:04;;;;;;;9.38;1.55;;;;;;;21.86;26.92;98056.84;5028673;28;20032;-67
2022/05/15 05:07:32;;;;;;;5.47;1.48;;;;;;;22.07;26.55;98066.59;5031974;28;20063;-67
2022/05/15 05:09:58;;;;;;;5.70;1.55;;;;;;;22.05;26.94;98063.34;5016333;28;20471;-66
2022/05/15 05:12:24;;;;;;;3.88;1.48;;;;;;;22.17;26.87;98060.41;5049192;28;20048;-67
2022/05/15 05:14:59;;;;;;;7.03;1.65;;;;;;;22.11;27.05;98051.44;4983366;28;20550;-67
2022/05/15 05:17:25;;;;;;;6.53;1.50;;;;;;;22.16;27.02;98056.88;5017641;28;20041;-67
2022/05/15 05:19:51;;;;;;;6.13;1.45;;;;;;;22.13;26.98;98057.41;5032421;28;20561;-67
2022/05/15 05:22:17;;;;;;;6.72;1.50;;;;;;;22.15;26.68;98057.97;5017601;28;20049;-66
2022/05/15 05:24:43;;;;;;;7.50;2.05;;;;;;;22.33;26.40;98057.41;5017715;28;20103;-66
2022/05/15 05:27:08;;;;;;;8.27;1.60;;;;;;;22.30;26.70;98063.38;5017739;28;20064;-67
2022/05/15 05:29:34;;;;;;;3.92;1.50;;;;;;;22.42;26.66;98066.59;5050561;28;20040;-66
2022/05/15 05:32:03;;;;;;;6.22;1.60;;;;;;;22.73;26.09;98049.28;5016829;28;20041;-67
2022/05/15 05:34:28;;;;;;;5.13;1.50;;;;;;;22.70;26.15;98057.94;5050952;28;20071;-67
2022/05/15 05:36:54;;;;;;;2.72;1.27;;;;;;;22.70;25.97;98054.41;5032256;28;20357;-66
2022/05/15 05:39:21;;;;;;;10.05;1.60;;;;;;;22.98;25.81;98061.94;5032030;28;20041;-67
2022/05/15 05:41:47;;;;;;;4.35;1.30;;;;;;;22.96;25.37;98043.25;4999341;28;20036;-67
2022/05/15 05:44:12;;;;;;;6.50;1.33;;;;;;;23.11;25.69;98064.88;5015654;28;20044;-67
2022/05/15 05:46:39;;;;;;;7.80;1.60;;;;;;;23.02;25.39;98061.09;5032193;28;20380;-67
2022/05/15 05:49:04;;;;;;;6.85;1.55;;;;;;;23.46;25.58;98060.44;5049961;28;20044;-69
2022/05/15 05:51:30;;;;;;;4.85;1.40;;;;;;;23.20;25.37;98016.38;5033383;28;20062;-67
2022/05/15 05:53:56;;;;;;;5.68;1.33;;;;;;;23.49;25.38;98057.97;5034000;28;20040;-67
2022/05/15 05:56:22;;;;;;;7.60;1.75;;;;;;;23.79;24.97;98052.38;5017412;28;20067;-67
2022/05/15 05:58:48;;;;;;;3.90;1.00;;;;;;;24.18;23.66;98057.81;5034059;28;20505;-67
2022/05/15 06:01:14;;;;;;;4.32;1.00;;;;;;;24.51;22.99;98054.25;5017357;28;20139;-67
2022/05/15 06:06:24;;;;;;;5.47;1.20;;;;;;;24.65;21.95;98060.66;5050515;28;20045;-67
2022/05/15 06:08:49;;;;;;;4.05;1.40;;;;;;;24.82;22.00;98055.63;5017478;28;20182;-67
2022/05/15 06:11:15;;;;;;;1.70;1.20;;;;;;;25.07;22.45;98060.78;5017511;28;20052;-67
2022/05/15 06:13:41;;;;;;;5.78;1.60;;;;;;;25.28;22.26;98062.16;5017584;28;20048;-68
2022/05/15 06:16:07;;;;;;;3.33;1.25;;;;;;;25.46;21.67;98055.19;5033901;28;20127;-67
2022/05/15 06:18:33;;;;;;;2.95;1.17;;;;;;;25.58;21.37;98061.81;5033704;28;20547;-67
2022/05/15 06:20:59;;;;;;;4.45;1.13;;;;;;;25.87;20.99;98051.59;5017251;28;20408;-67
2022/05/15 06:23:25;;;;;;;4.57;1.30;;;;;;;26.20;21.16;98066.88;5017358;28;20044;-67
2022/05/15 06:25:50;;;;;;;6.88;2.60;;;;;;;25.95;20.98;98063.72;5050561;28;20041;-68
2022/05/15 06:28:16;;;;;;;6.28;1.33;;;;;;;25.71;21.53;98069.22;5031562;28;20068;-67
2022/05/15 06:30:42;;;;;;;5.25;1.30;;;;;;;25.24;22.40;98061.13;5015659;28;20098;-67
2022/05/15 06:33:09;;;;;;;7.90;1.58;;;;;;;25.42;22.25;98065.81;4999357;28;20041;-67
2022/05/15 06:35:34;;;;;;;14.98;1.88;;;;;;;24.41;23.48;98060.63;5031938;28;20068;-67
2022/05/15 06:38:02;;;;;;;8.10;1.60;;;;;;;24.81;22.71;98062.97;5031494;28;20084;-67
2022/05/15 06:40:27;;;;;;;8.77;1.50;;;;;;;24.80;22.67;98060.56;5031927;28;20037;-67
2022/05/15 06:42:53;;;;;;;3.70;1.20;;;;;;;24.64;22.73;98040.84;5040126;28;20047;-67
2022/05/15 06:45:19;;;;;;;4.22;1.13;;;;;;;24.58;23.29;98041.19;4998677;28;20044;-68
2022/05/15 06:47:45;;;;;;;4.30;1.35;;;;;;;24.56;23.04;98037.94;5014839;28;20037;-67
2022/05/15 06:50:11;;;;;;;5.78;1.30;;;;;;;24.55;22.81;98048.00;5014488;28;20459;-68
2022/05/15 06:52:38;;;;;;;5.20;1.58;;;;;;;24.73;22.58;98028.28;5032191;28;20045;-68
2022/05/15 06:55:06;;;;;;;3.70;1.30;;;;;;;24.81;22.68;98049.41;5014971;28;20523;-67
2022/05/15 06:57:33;;;;;;;4.10;1.42;;;;;;;24.96;22.42;98047.59;5031664;28;20044;-68
2022/05/15 07:00:02;;;;;;;5.53;2.67;;;;;;;25.09;21.78;98046.91;4996045;28;20092;-67
2022/05/15 07:02:30;;;;;;;9.60;1.50;;;;;;;25.23;20.88;98053.28;5041991;28;20033;-67
2022/05/15 07:04:56;;;;;;;4.78;1.17;;;;;;;25.48;20.94;98053.00;4979763;28;20041;-67
2022/05/15 07:07:23;;;;;;;3.55;1.10;;;;;;;25.49;20.50;98049.97;5032120;28;20041;-67
2022/05/15 07:09:49;;;;;;;3.38;1.10;;;;;;;25.31;20.57;98047.19;5031617;28;20041;-68
2022/05/15 07:12:15;;;;;;;3.17;1.10;;;;;;;25.47;20.52;98041.28;5032592;28;20048;-69
2022/05/15 07:14:41;;;;;;;3.22;1.50;;;;;;;25.29;20.61;98044.78;4995573;28;20037;-68
2022/05/15 07:17:07;;;;;;;9.90;1.40;;;;;;;25.57;20.33;98046.59;5013534;28;20041;-67
2022/05/15 07:19:33;;;;;;;6.90;1.33;;;;;;;25.74;20.39;98051.53;5013417;28;20514;-66
2022/05/15 07:21:59;;;;;;;5.32;1.40;;;;;;;25.88;19.87;98045.06;4997023;28;20045;-67
2022/05/15 07:24:25;;;;;;;4.53;1.38;;;;;;;25.94;19.40;98053.97;4996476;28;20053;-67
2022/05/15 07:26:51;;;;;;;4.22;1.60;;;;;;;26.13;19.34;98041.97;5028407;28;20041;-67
2022/05/15 07:29:18;;;;;;;2.53;1.20;;;;;;;26.25;18.64;98031.44;5029460;28;20041;-68
2022/05/15 07:31:44;;;;;;;15.07;7.93;;;;;;;27.61;17.68;98048.75;5045988;28;20043;-68
2022/05/15 07:34:10;;;;;;;2.50;1.42;;;;;;;28.83;16.58;98034.59;5030460;28;20041;-67
2022/05/15 07:36:38;;;;;;;4.50;1.40;;;;;;;30.42;15.22;98015.59;4995571;28;20052;-66
2022/05/15 07:39:05;;;;;;;5.50;1.33;;;;;;;32.54;13.61;98034.72;5028508;28;20560;-67
2022/05/15 07:41:31;;;;;;;4.75;1.23;;;;;;;34.51;11.70;98035.56;5011878;28;20895;-69
2022/05/15 07:43:57;;;;;;;5.95;1.13;;;;;;;34.68;10.66;98038.00;5020098;28;20045;-68
2022/05/15 07:46:23;;;;;;;5.90;1.25;;;;;;;37.49;9.60;98025.56;5028541;28;20040;-69
2022/05/15 07:48:49;;;;;;;5.25;1.05;;;;;;;36.84;9.47;98041.47;5003142;28;20037;-67
2022/05/15 07:51:15;;;;;;;2.00;1.00;;;;;;;35.94;9.90;98024.59;5011534;28;20075;-69
2022/05/15 07:53:42;;;;;;;2.88;0.93;;;;;;;36.16;9.38;98023.09;5046716;28;20051;-68
2022/05/15 07:56:12;;;;;;;4.32;1.45;;;;;;;36.85;9.39;98025.66;5023844;28;20421;-70
2022/05/15 07:58:38;;;;;;;3.03;1.40;;;;;;;38.56;8.05;98021.94;4996598;28;20409;-70
2022/05/15 08:01:05;;;;;;;3.85;1.70;;;;;;;39.60;7.45;98034.41;5012290;28;20041;-71
2022/05/15 08:03:39;;;;;;;2.90;1.13;;;;;;;41.43;6.44;98024.72;4999028;28;20389;-70
2022/05/15 08:08:51;;;;;;;4.07;1.00;;;;;;;44.52;4.47;98019.84;5035605;28;20057;-70
2022/05/15 08:11:17;;;;;;;3.28;1.10;;;;;;;45.78;3.61;98025.50;5016491;28;20854;-70
2022/05/15 08:13:42;;;;;;;2.75;1.10;;;;;;;46.32;3.55;98017.59;4983558;28;20044;-71
2022/05/15 08:16:09;;;;;;;2.05;1.15;;;;;;;45.00;4.57;98021.56;5015670;28;20139;-70
2022/05/15 08:24:06;;;;;;;3.83;1.05;;;;;;;46.94;3.47;98003.41;4998932;28;20522;-68
2022/05/15 08:26:32;;;;;;;4.18;1.25;;;;;;;47.69;3.16;98005.16;5022854;28;20263;-68
2022/05/15 08:28:57;;;;;;;2.60;1.25;;;;;;;48.66;2.72;98012.00;5011706;28;20502;-70
2022/05/15 08:31:25;;;;;;;2.35;1.10;;;;;;;48.78;2.98;98009.19;4998002;28;20048;-69
2022/05/15 08:33:51;;;;;;;3.45;1.35;;;;;;;47.66;3.23;97998.38;5028660;28;20094;-69
2022/05/15 08:36:17;;;;;;;3.35;1.00;;;;;;;47.06;3.49;97997.06;5014554;28;20515;-69
2022/05/15 08:38:44;;;;;;;2.05;0.88;;;;;;;45.13;3.74;97977.75;4999608;28;20136;-67
2022/05/15 08:41:28;;;;;;;3.70;1.00;;;;;;;40.81;5.25;97984.47;5031623;28;20110;-69
2022/05/15 08:44:18;;;;;;;4.22;0.98;;;;;;;38.37;6.69;97974.13;5015343;28;20131;-67
2022/05/15 08:47:18;;;;;;;2.03;0.90;;;;;;;35.63;8.51;97970.22;5031446;28;20048;-67
2022/05/15 08:49:50;;;;;;;3.25;1.20;;;;;;;34.04;9.97;97964.53;4992235;28;20048;-67
2022/05/15 08:52:35;;;;;;;4.38;1.15;;;;;;;34.31;9.72;97962.91;4997059;28;20424;-66
2022/05/15 08:55:09;;;;;;;2.60;1.30;;;;;;;37.72;7.84;97976.47;5011301;28;20167;-68
2022/05/15 08:57:37;;;;;;;7.00;1.30;;;;;;;38.38;7.51;97968.19;5045621;28;20075;-68
2022/05/15 09:00:13;;;;;;;9.85;2.30;;;;;;;37.48;7.92;97956.69;5057122;28;20123;-68
2022/05/15 09:02:40;;;;;;;2.90;1.42;;;;;;;36.48;8.87;97972.81;5014843;28;20049;-69
2022/05/15 09:05:07;;;;;;;5.82;1.00;;;;;;;34.84;9.93;97970.66;5010876;28;20385;-70
2022/05/15 09:07:39;;;;;;;4.18;1.33;;;;;;;32.94;10.98;97964.25;5014611;28;20053;-68
2022/05/15 09:10:32;;;;;;;9.05;1.42;;;;;;;31.57;12.33;97972.22;5029705;28;20455;-69
2022/05/15 09:13:20;;;;;;;3.65;1.30;;;;;;;30.70;12.98;97962.00;5045910;28;20037;-69
2022/05/15 09:15:57;;;;;;;4.05;2.00;;;;;;;29.60;13.70;97961.78;5023735;28;20033;-67
2022/05/15 09:18:24;;;;;;;3.47;1.30;;;;;;;29.21;13.72;97969.31;5030364;28;20064;-67
2022/05/15 09:20:52;;;;;;;2.20;1.10;;;;;;;28.93;14.06;97967.91;4976937;28;20096;-66
2022/05/15 09:23:29;;;;;;;3.45;1.67;;;;;;;29.29;13.86;97963.84;5010221;28;20103;-67
2022/05/15 09:26:22;;;;;;;3.33;1.83;;;;;;;29.41;13.79;97968.72;5026514;28;20387;-66
2022/05/15 09:28:55;;;;;;;2.10;1.40;;;;;;;29.63;13.96;97975.97;5022348;28;20505;-67
2022/05/15 09:31:42;;;;;;;3.60;1.40;;;;;;;31.52;12.37;97975.97;4991006;28;20038;-67
2022/05/15 09:34:20;;;;;;;4.13;1.20;;;;;;;32.03;12.12;97986.53;4991597;28;20046;-67
2022/05/15 09:36:46;;;;;;;5.22;1.60;;;;;;;31.73;12.33;97985.00;5024205;28;20061;-68
2022/05/15 09:39:27;;;;;;;2.35;1.10;;;;;;;31.61;12.06;97979.44;5008468;28;20049;-66
2022/05/15 09:45:25;;;;;;;13.93;1.30;;;;;;;30.56;14.18;97984.13;5008056;28;20137;-68
2022/05/15 09:47:51;;;;;;;10.57;1.10;;;;;;;29.93;14.92;97983.22;4991191;28;20084;-72
2022/05/15 09:50:48;;;;;;;5.97;1.30;;;;;;;29.85;15.35;97986.78;5017806;28;20069;-67
2022/05/15 09:53:34;;;;;;;9.25;1.25;;;;;;;29.40;15.79;97991.69;5009036;28;20046;-68
2022/05/15 09:56:10;;;;;;;9.23;1.85;;;;;;;31.22;14.95;97998.22;4979802;28;20042;-67
2022/05/15 09:59:05;;;;;;;9.68;1.20;;;;;;;32.85;13.44;97999.28;5008663;28;20063;-66
2022/05/15 10:01:41;;;;;;;7.75;1.30;;;;;;;32.74;13.14;97989.09;5026085;28;20045;-66
2022/05/15 10:04:25;;;;;;;6.20;1.58;;;;;;;32.17;12.91;97998.03;5010104;28;20449;-67
2022/05/15 10:06:56;;;;;;;3.80;1.13;;;;;;;31.90;13.12;97984.88;5026018;28;20049;-68
2022/05/15 10:09:36;;;;;;;5.88;1.38;;;;;;;33.66;12.14;98010.22;5007622;28;20059;-67
2022/05/15 10:12:30;;;;;;;5.13;1.27;;;;;;;36.07;10.02;97994.88;4991750;28;20053;-70
2022/05/15 10:15:15;;;;;;;2.88;1.02;;;;;;;36.63;9.35;97996.78;5025498;28;20050;-70
2022/05/15 10:17:50;;;;;;;3.95;1.40;;;;;;;37.37;9.03;97995.31;4973297;28;20045;-68
2022/05/15 10:20:20;;;;;;;5.00;0.80;;;;;;;36.60;9.03;97992.00;5040524;28;20053;-67
2022/05/15 10:22:46;;;;;;;;;;;;;;;35.41;9.89;98001.28;5009821;28;20179;-67
2022/05/15 10:25:14;;;;;;;2.45;1.02;;;;;;;34.17;10.71;97998.34;5013216;28;20343;-66
2022/05/15 10:27:42;;;;;;;5.53;1.25;;;;;;;33.18;11.67;97985.47;5009119;28;20560;-67
2022/05/15 10:30:21;;;;;;;2.88;1.00;;;;;;;32.89;11.60;97993.94;5023732;28;20046;-68
2022/05/15 10:32:56;;;;;;;3.70;1.02;;;;;;;32.61;11.96;97994.53;5008642;28;20418;-67
2022/05/15 10:35:47;;;;;;;3.22;1.67;;;;;;;34.30;11.09;97997.16;5025526;28;20045;-66
2022/05/15 10:38:14;;;;;;;3.95;0.80;;;;;;;35.97;9.33;97996.25;5024701;28;20414;-68
2022/05/15 10:41:17;;;;;;;2.97;0.93;;;;;;;37.04;8.85;98001.47;5007398;28;20045;-67
2022/05/15 10:44:09;;;;;;;5.40;1.10;;;;;;;36.86;9.21;97983.78;5019385;28;20131;-67
2022/05/15 10:47:09;;;;;;;1.80;0.90;;;;;;;36.53;9.22;98004.91;5022567;28;20936;-66
2022/05/15 10:49:56;;;;;;;8.32;3.47;;;;;;;35.78;9.46;97984.34;5020181;28;20092;-67
2022/05/15 10:52:34;;;;;;;2.80;1.08;;;;;;;34.95;9.36;97996.56;5002794;28;20121;-67
2022/05/15 10:58:07;;;;;;;7.43;1.63;;;;;;;33.44;11.30;98014.25;5008542;28;20083;-67
2022/05/15 11:00:42;;;;;;;2.22;1.17;;;;;;;31.90;12.63;98017.03;5024551;28;20045;-66
2022/05/15 11:03:27;;;;;;;4.07;1.25;;;;;;;30.64;14.53;98021.66;4976386;28;20049;-67
2022/05/15 11:06:17;;;;;;;5.07;1.05;;;;;;;30.37;15.39;98010.28;5026343;28;20107;-66
2022/05/15 11:09:02;;;;;;;4.88;1.10;;;;;;;30.09;14.91;97981.63;5021074;28;20115;-67
2022/05/15 11:11:43;;;;;;;1.50;1.00;;;;;;;30.36;14.46;97998.53;5032826;28;20072;-67
2022/05/15 11:14:17;;;;;;;5.00;0.95;;;;;;;30.83;14.03;98004.88;5008694;28;20804;-66
2022/05/15 11:16:55;;;;;;;4.18;1.60;;;;;;;31.26;13.40;98007.41;5024350;28;20530;-68
2022/05/15 11:19:39;;;;;;;3.97;1.40;;;;;;;31.46;13.42;98003.94;5009496;28;20115;-69
2022/05/15 11:22:32;;;;;;;1.65;0.90;;;;;;;31.46;12.64;98001.97;5010091;28;20041;-71
2022/05/15 11:25:05;;;;;;;2.33;1.27;;;;;;;31.48;12.71;97996.97;4993354;28;20520;-70
2022/05/15 11:27:37;;;;;;;3.85;1.35;;;;;;;31.91;12.24;98002.97;4992048;28;20041;-70
2022/05/15 11:30:10;;;;;;;3.05;0.90;;;;;;;31.90;12.10;97998.63;5007421;28;20060;-70
2022/05/15 11:33:08;;;;;;;2.65;1.02;;;;;;;31.72;12.45;98005.34;4971086;28;20137;-66
2022/05/15 11:35:40;;;;;;;4.13;1.67;;;;;;;31.36;12.93;97998.81;5041362;28;21403;-67
2022/05/15 11:38:27;;;;;;;3.25;1.35;;;;;;;31.29;13.21;97999.34;5011621;28;20505;-66
2022/05/15 11:40:53;;;;;;;7.55;1.20;;;;;;;31.36;13.16;97993.31;5028468;28;20496;-66
2022/05/15 11:43:31;;;;;;;2.60;1.38;;;;;;;31.67;12.87;97994.56;5029446;28;20449;-66
2022/05/15 11:45:59;;;;;;;3.42;1.48;;;;;;;31.62;12.89;97989.28;4997122;28;20045;-66
2022/05/15 11:48:37;;;;;;;5.72;2.35;;;;;;;31.67;12.92;97971.81;5013248;28;20084;-67
2022/05/15 11:51:24;;;;;;;3.75;1.17;;;;;;;31.41;12.33;97995.88;5009324;28;20042;-66
2022/05/15 11:53:56;;;;;;;3.97;1.33;;;;;;;30.97;13.27;97980.75;5009647;28;20076;-67
2022/05/15 11:56:36;;;;;;;2.30;1.30;;;;;;;30.44;13.75;97989.47;5009771;28;20038;-67
2022/05/15 11:59:24;;;;;;;3.97;1.10;;;;;;;29.59;14.44;97981.28;5026206;28;20502;-66
2022/05/15 12:01:54;;;;;;;4.20;0.95;;;;;;;28.42;15.36;97978.56;5009345;28;20046;-68
2022/05/15 12:04:46;;;;;;;2.40;1.20;;;;;;;28.19;16.30;97974.25;5009412;28;20053;-66
2022/05/15 12:07:15;;;;;;;4.05;1.40;;;;;;;27.89;16.30;97975.84;4993640;28;20052;-66